Decoded Metar for EPRA ( in _UNIDENTIFIED) (IATA:) | Meteo·Mobile Aviation Weather
aviador You're here:

EPRA Decoded Metar

in _UNIDENTIFIED
Report Time2019-04-23 08:00:00
UTC Time2019-04-23 08:31:33
Flight Rules vfr VFR
Wind120° at 18 kt
W.Decomp.*RWY 07: 12.5 kt HW 12.9 kt RCW
Visibility9999 m
Phenomena:N/A
Clouds:N/A
Expected CloudBase > 5,600 ft AGL from Temp-Dew spread
CeilingNone
Temp14°C (ISA 0)
Dew Point00°C (39% RH)
AAT5.6°C
QNH1021 hPa
Density Alt420 ft
Elevation584 ft
Report Wrong Elevation
Raw Report
METAR EPRA 230800Z 12018KT 090V150 CAVOK 14/00 Q1021=

Extra information for EPRA:More info

Metar Taf Metar & Taf Last 4 Metars F.Rules Stats Wind Profile Meteogram Temp Stats Metar ALERT Operation Metar Decoded Social comments